Latest Weather Observations for Cape Wessel

IDD60801

Issued at 7:41 am CST Thursday 24 October 2019 (issued every 10 minutes, with the page automatically refreshed every 10 minutes)

About weather observations | Map of weather stations | Latest weather observations for NT | Other Formats
Station Details ID: 200786 Name: CAPE WESSEL Lat: -11.00 Lon: 136.76 Height: 18.0 m
Data from the previous 72 hours. | See also: Recent months at Cape Wessel
Date/Time
CST
Temp
°C
App
Temp
°C
Dew
Point
°C
Rel
Hum
%
Delta-T
°C
Wind Press
QNH
hPa
Press
MSL
hPa
Rain since
9am
mm
Dir  Spd
km/h
Gust
km/h
Spd
kts
Gust
kts
24/07:30am 28.1 28.9 23.2 74 3.4 ESE 24 32 13 17 1012.5 1012.4 0.0
24/07:00am 26.6 27.0 23.1 81 2.4 E 26 32 14 17 1011.9 1011.8 0.0
24/06:30am 26.2 26.5 22.9 82 2.2 E 26 33 14 18 1011.7 1011.6 0.0
24/06:00am 25.9 26.7 23.2 85 1.8 ESE 24 30 13 16 1011.5 1011.4 0.0
24/05:30am 25.7 26.8 23.0 85 1.8 ESE 22 28 12 15 1011.2 1011.1 0.0
24/05:00am 25.7 26.3 22.8 84 2.0 E 24 30 13 16 1010.8 1010.7 0.0
24/04:30am 25.7 26.7 22.8 84 2.0 ESE 22 28 12 15 1010.4 1010.3 0.0
24/04:00am 25.8 26.9 23.1 85 1.8 ESE 22 32 12 17 1010.2 1010.1 0.0
24/03:30am 26.0 27.3 22.7 82 2.2 ESE 20 24 11 13 1010.3 1010.2 0.0
24/03:00am 26.0 27.6 22.9 83 2.1 ESE 19 22 10 12 1010.4 1010.3 0.0
24/02:30am 26.0 27.5 23.1 84 2.0 ESE 20 26 11 14 1010.5 1010.4 0.0
24/02:00am 25.7 27.1 22.8 84 2.0 ESE 20 26 11 14 1010.8 1010.7 0.0
24/01:30am 25.5 27.1 22.8 85 1.8 ESE 19 24 10 13 1011.1 1011.0 0.0
24/01:00am 25.5 26.8 22.6 84 2.0 ESE 20 24 11 13 1011.4 1011.3 0.0
24/12:30am 25.6 27.0 22.9 85 1.8 ESE 20 24 11 13 1011.8 1011.7 0.0
24/12:00am 25.5 26.5 22.2 82 2.2 ESE 20 24 11 13 1012.1 1012.0 0.0
 
Date/Time
CST
Temp
°C
App
Temp
°C
Dew
Point
°C
Rel
Hum
%
Delta-T
°C
Wind Press
QNH
hPa
Press
MSL
hPa
Rain since
9am
mm
Dir  Spd
km/h
Gust
km/h
Spd
kts
Gust
kts
23/11:30pm 25.6 27.2 22.9 85 1.8 ESE 19 24 10 13 1012.3 1012.2 0.0
23/11:00pm 25.6 27.1 22.7 84 2.0 ESE 19 22 10 12 1012.6 1012.5 0.0
23/10:30pm 25.5 27.2 22.4 83 2.1 ESE 17 20 9 11 1012.7 1012.6 0.0
23/10:00pm 25.6 27.3 22.3 82 2.2 ESE 17 20 9 11 1012.6 1012.5 0.0
23/09:30pm 25.7 27.0 22.4 82 2.2 ESE 19 22 10 12 1012.3 1012.2 0.0
23/09:00pm 25.9 27.2 22.6 82 2.2 ESE 20 24 11 13 1012.0 1011.9 0.0
23/08:30pm 25.9 26.7 22.4 81 2.4 ESE 22 26 12 14 1011.7 1011.6 0.0
23/08:00pm 26.1 26.6 22.6 81 2.4 ESE 24 30 13 16 1011.4 1011.3 0.0
23/07:30pm 26.2 26.1 22.3 79 2.6 ESE 26 32 14 17 1011.3 1011.2 0.0
23/07:00pm 26.2 26.5 22.3 79 2.6 ESE 24 33 13 18 1011.0 1010.9 0.0
23/06:30pm 26.7 26.9 22.8 79 2.6 ESE 26 32 14 17 1010.7 1010.6 0.0
23/06:00pm 26.7 26.3 22.3 77 3.0 ESE 28 33 15 18 1010.5 1010.4 0.0
23/05:30pm 27.4 27.4 22.4 74 3.4 ESE 26 33 14 18 1010.3 1010.2 0.0
23/05:00pm 28.4 27.9 22.2 69 4.2 ESE 28 35 15 19 1010.2 1010.1 0.0
23/04:30pm 28.8 28.3 22.1 67 4.5 ESE 28 41 15 22 1010.0 1009.9 0.0
23/04:00pm 29.6 28.7 22.1 64 5.1 ESE 30 37 16 20 1009.7 1009.6 0.0
23/03:30pm 30.6 29.4 22.2 61 5.7 ESE 32 37 17 20 1010.0 1009.9 0.0
23/03:00pm 31.0 30.2 22.3 60 5.9 ESE 30 37 16 20 1010.0 1009.9 0.0
23/02:30pm 30.8 29.2 21.6 58 6.2 ESE 32 39 17 21 1010.0 1009.9 0.0
23/02:00pm 31.0 29.5 21.8 58 6.2 ESE 32 39 17 21 1010.3 1010.2 0.0
23/01:30pm 31.5 29.7 22.2 57 6.3 E 35 41 19 22 1010.7 1010.6 0.0
23/01:00pm 31.3 29.8 21.8 57 6.4 E 32 39 17 21 1011.3 1011.2 0.0
23/12:30pm 31.0 29.5 21.8 58 6.2 E 32 39 17 21 1011.6 1011.5 0.0
23/12:00pm 32.1 30.7 22.2 56 6.8 E 33 41 18 22 1011.8 1011.7 0.0
23/11:30am 31.9 30.2 21.7 54 6.9 E 33 41 18 22 1012.1 1012.0 0.0
23/11:00am 30.9 28.9 21.9 58 6.1 E 35 43 19 23 1012.3 1012.2 0.0
23/10:30am 29.9 28.2 21.3 60 5.8 E 32 43 17 23 1012.6 1012.5 0.0
23/10:00am 30.6 28.9 21.7 59 6.0 E 33 43 18 23 1012.7 1012.6 0.0
23/09:30am 30.8 29.1 22.4 61 5.7 E 35 44 19 24 1013.0 1012.9 0.0
23/09:00am 29.9 27.1 21.8 62 5.5 E 39 48 21 26 1013.1 1013.0 0.0
23/08:30am 29.5 28.1 23.0 68 4.4 ESE 35 46 19 25 1013.1 1013.0 0.0
23/08:00am 28.6 27.4 22.6 70 4.1 ESE 33 41 18 22 1013.0 1012.9 0.0
23/07:30am 28.0 26.9 23.4 76 3.2 E 35 43 19 23 1012.6 1012.5 0.0
23/07:00am 27.2 25.2 22.6 76 3.1 E 37 43 20 23 1012.3 1012.2 0.0
23/06:30am 26.7 25.3 23.0 80 2.5 E 35 44 19 24 1012.0 1011.9 0.0
23/06:00am 26.1 24.9 22.6 81 2.4 E 33 41 18 22 1011.7 1011.6 0.0
23/05:30am 26.1 25.7 23.0 83 2.1 E 30 39 16 21 1011.4 1011.3 0.0
23/05:00am 26.0 25.5 22.9 83 2.1 E 30 39 16 21 1011.1 1011.0 0.0
23/04:30am 25.9 24.7 22.6 82 2.2 E 33 41 18 22 1010.9 1010.8 0.0
23/04:00am 25.9 24.8 22.4 81 2.4 E 32 39 17 21 1010.6 1010.5 0.0
23/03:30am 25.8 24.7 22.5 82 2.2 E 32 39 17 21 1010.4 1010.3 0.0
23/03:00am 25.8 25.5 22.5 82 2.2 E 28 37 15 20 1010.5 1010.4 0.0
23/02:30am 25.8 25.7 22.9 84 2.0 E 28 35 15 19 1010.6 1010.5 0.0
23/02:00am 25.7 25.3 22.4 82 2.2 E 28 33 15 18 1010.8 1010.7 0.0
23/01:30am 25.7 25.4 22.6 83 2.1 E 28 32 15 17 1011.2 1011.1 0.0
23/01:00am 25.6 25.8 22.7 84 2.0 ESE 26 32 14 17 1011.4 1011.3 0.0
23/12:30am 25.6 26.0 22.5 83 2.1 ESE 24 30 13 16 1011.6 1011.5 0.0
23/12:00am 25.6 25.9 22.3 82 2.2 ESE 24 30 13 16 1011.9 1011.8 0.0
 
Date/Time
CST
Temp
°C
App
Temp
°C
Dew
Point
°C
Rel
Hum
%
Delta-T
°C
Wind Press
QNH
hPa
Press
MSL
hPa
Rain since
9am
mm
Dir  Spd
km/h
Gust
km/h
Spd
kts
Gust
kts
22/11:30pm 25.6 25.9 22.3 82 2.2 ESE 24 30 13 16 1012.1 1012.0 0.0
22/11:00pm 25.7 25.7 22.4 82 2.2 ESE 26 32 14 17 1012.2 1012.1 0.0
22/10:30pm 25.7 25.6 22.2 81 2.3 ESE 26 32 14 17 1012.1 1012.0 0.0
22/10:00pm 25.8 25.6 22.1 80 2.5 ESE 26 32 14 17 1011.9 1011.8 0.0
22/09:30pm 25.8 24.8 21.9 79 2.6 ESE 30 35 16 19 1011.6 1011.5 0.0
22/09:00pm 26.0 24.6 22.3 80 2.5 ESE 33 41 18 22 1011.6 1011.5 0.0
22/08:30pm 25.9 24.5 22.0 79 2.6 ESE 32 39 17 21 1011.4 1011.3 0.0
22/08:00pm 26.0 25.1 22.1 79 2.6 ESE 30 35 16 19 1011.4 1011.3 0.0
22/07:30pm 26.2 25.3 22.1 78 2.8 ESE 30 37 16 20 1011.1 1011.0 0.0
22/07:00pm 26.2 25.3 22.1 78 2.7 ESE 30 35 16 19 1010.8 1010.7 0.0
22/06:30pm 26.2 26.0 22.1 78 2.8 ESE 26 33 14 18 1010.4 1010.3 0.0
22/06:00pm 26.7 26.4 21.9 75 3.2 ESE 26 32 14 17 1010.2 1010.1 0.0
22/05:30pm 27.6 27.6 21.6 70 4.0 ESE 24 32 13 17 1009.9 1009.8 0.0
22/05:00pm 28.4 27.9 21.4 66 4.7 E 26 32 14 17 1009.7 1009.6 0.0
22/04:30pm 29.1 28.3 20.8 61 5.5 E 26 32 14 17 1009.6 1009.5 0.0
22/04:00pm 29.7 28.8 21.4 61 5.6 E 28 35 15 19 1009.6 1009.5 0.0
22/03:30pm 30.4 29.4 21.2 58 6.2 E 28 35 15 19 1009.8 1009.7 0.0
22/03:00pm 30.9 29.8 21.1 56 6.6 E 28 35 15 19 1010.0 1009.9 0.0
22/02:30pm 30.8 30.4 21.6 58 6.2 E 26 33 14 18 1010.0 1009.9 0.0
22/02:00pm 31.3 30.1 21.5 56 6.6 E 30 37 16 20 1010.1 1010.0 0.0
22/01:30pm 31.7 29.9 21.2 53 7.1 E 32 37 17 20 1010.3 1010.2 0.0
22/01:00pm 31.7 29.9 21.2 53 7.1 E 32 39 17 21 1010.5 1010.4 0.0
22/12:30pm 31.7 29.6 20.9 52 7.2 E 33 43 18 23 1010.8 1010.7 0.0
22/12:00pm 32.2 30.3 21.4 53 7.3 E 33 44 18 24 1011.4 1011.3 0.0
22/11:30am 30.9 28.9 22.5 61 5.7 E 37 46 20 25 1011.9 1011.8 0.0
22/11:00am 29.4 27.8 21.6 63 5.2 E 32 41 17 22 1012.1 1012.0 0.0
22/10:30am 29.4 29.0 22.4 66 4.8 ENE 28 33 15 18 1012.3 1012.2 0.0
22/10:00am 30.4 29.2 22.3 62 5.5 ENE 32 41 17 22 1012.4 1012.3 0.0
22/09:30am 29.4 27.8 21.9 64 5.1 E 33 41 18 22 1012.6 1012.5 0.0
22/09:00am 29.3 28.2 22.5 67 4.6 E 32 39 17 21 1012.6 1012.5 0.0
22/08:30am 29.1 28.5 22.6 68 4.4 ENE 30 37 16 20 1012.5 1012.4 0.0
22/08:00am 28.7 28.6 22.9 71 4.0 E 28 33 15 18 1012.3 1012.2 0.0
22/07:30am 27.3 26.5 22.3 74 3.4 E 30 35 16 19 1012.1 1012.0 0.0
22/07:00am 27.1 26.7 22.3 75 3.2 E 28 35 15 19 1012.0 1011.9 0.0
22/06:30am 26.2 26.1 22.3 79 2.6 E 26 32 14 17 1011.9 1011.8 0.0
22/06:00am 25.9 25.0 22.2 80 2.5 E 30 37 16 20 1011.5 1011.4 0.0
22/05:30am 25.8 25.4 22.3 81 2.4 ENE 28 35 15 19 1011.2 1011.1 0.0
22/05:00am 25.8 25.3 22.1 80 2.5 E 28 35 15 19 1011.0 1010.9 0.0
22/04:30am 25.7 25.2 22.2 81 2.3 ENE 28 35 15 19 1010.6 1010.5 0.0
22/04:00am 25.7 25.0 21.8 79 2.6 E 28 35 15 19 1010.4 1010.3 0.0
22/03:30am 25.6 24.8 21.7 79 2.6 E 28 35 15 19 1010.4 1010.3 0.0
22/03:00am 25.3 26.0 22.2 83 2.1 ENE 22 30 12 16 1010.5 1010.4 0.0
22/02:30am 25.2 26.4 22.1 83 2.1 E 19 24 10 13 1010.6 1010.5 0.0
22/02:00am 25.0 26.4 21.9 83 2.1 E 17 20 9 11 1010.7 1010.6 0.0
22/01:30am 25.0 26.4 21.9 83 2.1 E 17 20 9 11 1011.2 1011.1 0.0
22/01:00am 25.0 26.4 21.9 83 2.1 E 17 20 9 11 1011.4 1011.3 0.0
22/12:30am 25.0 26.6 22.1 84 1.9 E 17 20 9 11 1011.6 1011.5 0.0
22/12:00am 25.4 26.5 22.3 83 2.1 E 20 24 11 13 1012.1 1012.0 0.0
 
Date/Time
CST
Temp
°C
App
Temp
°C
Dew
Point
°C
Rel
Hum
%
Delta-T
°C
Wind Press
QNH
hPa
Press
MSL
hPa
Rain since
9am
mm
Dir  Spd
km/h
Gust
km/h
Spd
kts
Gust
kts
21/11:30pm 25.5 26.7 22.2 82 2.2 E 19 24 10 13 1012.2 1012.1 0.0
21/11:00pm 25.5 26.3 21.8 80 2.5 E 20 24 11 13 1012.3 1012.2 0.0
21/10:30pm 25.3 26.2 22.0 82 2.2 E 20 22 11 12 1012.4 1012.3 0.0
21/10:00pm 25.4 26.7 22.3 83 2.1 E 19 24 10 13 1012.3 1012.2 0.0
21/09:30pm 25.5 26.8 22.6 84 2.0 E 20 22 11 12 1012.0 1011.9 0.0
21/09:00pm 25.5 26.6 22.4 83 2.1 E 20 22 11 12 1011.7 1011.6 0.0
21/08:30pm 25.5 26.8 22.4 83 2.1 E 19 24 10 13 1011.5 1011.4 0.0
21/08:00pm 25.6 27.0 22.5 83 2.1 E 19 20 10 11 1011.2 1011.1 0.0
21/07:30pm 25.8 27.3 22.7 83 2.1 ESE 19 20 10 11 1011.0 1010.9 0.0
21/07:00pm 25.7 27.4 22.4 82 2.2 ESE 17 19 9 10 1010.8 1010.7 0.0
21/06:30pm 25.9 27.8 22.0 79 2.6 ESE 15 19 8 10 1010.5 1010.4 0.0
21/06:00pm 26.7 28.1 21.9 75 3.2 SE 17 20 9 11 1010.4 1010.3 0.0
21/05:30pm 27.6 29.3 21.6 70 4.0 ESE 15 19 8 10 1010.2 1010.1 0.0
21/05:00pm 28.7 30.7 22.2 68 4.4 ESE 15 17 8 9 1010.1 1010.0 0.0
21/04:30pm 29.2 30.9 21.7 64 5.0 ESE 15 17 8 9 1010.0 1009.9 0.0
21/04:00pm 30.0 32.2 21.9 62 5.5 E 13 17 7 9 1010.1 1010.0 0.0
21/03:30pm 30.4 32.7 22.0 60 5.7 E 13 17 7 9 1010.1 1010.0 0.0
21/03:00pm 31.0 33.2 22.6 61 5.7 ENE 15 17 8 9 1010.2 1010.1 0.0
21/02:30pm 31.0 33.0 22.3 60 5.9 ENE 15 17 8 9 1010.5 1010.4 0.0
21/02:00pm 32.4 34.7 22.8 57 6.6 E 15 19 8 10 1010.8 1010.7 0.0
21/01:30pm 31.2 32.6 21.9 57 6.3 ESE 17 20 9 11 1011.2 1011.1 0.0
21/01:00pm 31.8 33.4 22.2 56 6.5 ESE 17 19 9 10 1011.4 1011.3 0.0
21/12:30pm 32.7 34.9 23.3 57 6.5 ESE 17 20 9 11 1011.9 1011.8 0.0
21/12:00pm 30.9 32.3 21.9 58 6.1 ESE 17 20 9 11 1012.4 1012.3 0.0
21/11:30am 30.4 31.9 22.0 60 5.7 ESE 17 20 9 11 1012.8 1012.7 0.0
21/11:00am 30.7 32.5 22.6 62 5.5 ESE 17 22 9 12 1012.9 1012.8 0.0
21/10:30am 30.4 31.8 21.8 60 5.8 E 17 20 9 11 1012.9 1012.8 0.0
21/10:00am 31.2 33.2 23.0 61 5.6 E 17 20 9 11 1012.9 1012.8 0.0
21/09:30am 30.2 32.0 22.6 63 5.2 ENE 17 20 9 11 1013.0 1012.9 0.0
21/09:00am 29.8 32.1 23.5 69 4.3 E 17 19 9 10 1013.2 1013.1 0.0
21/08:30am 29.8 33.3 24.2 72 3.9 E 13 17 7 9 1013.0 1012.9 0.0
21/08:00am 28.8 32.0 23.7 74 3.5 E 13 17 7 9 1012.9 1012.8 0.0

Other formats

Comma delimited format used in spreadsheet applications
http://www.bom.gov.au/fwo/IDD60801/IDD60801.94147.axf

JavaScript Object Notation format (JSON) in row-major order
http://www.bom.gov.au/fwo/IDD60801/IDD60801.94147.json

Data quality

Most of these data are generated automatically and are frequently updated. Quality checks on data are not normally performed. It is possible for incorrect values to appear. Refer to information at About Latest Weather Observations and please check the disclaimer before using these data.